sensor_id;sensor_type;location;lat;lon;timestamp;P1;durP1;ratioP1;P2;durP2;ratioP2
55364;SDS011;41245;45.384;20.390;2022-08-24T00:00:24;68.43;;;30.95;;
55364;SDS011;41245;45.384;20.390;2022-08-24T00:02:50;64.93;;;29.95;;
55364;SDS011;41245;45.384;20.390;2022-08-24T00:05:16;67.75;;;30.38;;
55364;SDS011;41245;45.384;20.390;2022-08-24T00:07:45;66.97;;;29.65;;
55364;SDS011;41245;45.384;20.390;2022-08-24T00:10:12;70.70;;;30.50;;
55364;SDS011;41245;45.384;20.390;2022-08-24T00:12:38;60.13;;;27.27;;
55364;SDS011;41245;45.384;20.390;2022-08-24T00:15:05;59.28;;;28.67;;
55364;SDS011;41245;45.384;20.390;2022-08-24T00:17:33;61.63;;;28.80;;
55364;SDS011;41245;45.384;20.390;2022-08-24T00:19:59;72.70;;;31.58;;
55364;SDS011;41245;45.384;20.390;2022-08-24T00:22:25;77.85;;;31.92;;
55364;SDS011;41245;45.384;20.390;2022-08-24T00:24:52;86.38;;;35.25;;
55364;SDS011;41245;45.384;20.390;2022-08-24T00:27:18;68.75;;;30.88;;
55364;SDS011;41245;45.384;20.390;2022-08-24T00:29:43;67.50;;;32.75;;
55364;SDS011;41245;45.384;20.390;2022-08-24T00:32:09;84.32;;;34.10;;
55364;SDS011;41245;45.384;20.390;2022-08-24T00:34:35;70.30;;;33.20;;
55364;SDS011;41245;45.384;20.390;2022-08-24T00:37:01;67.75;;;31.92;;
55364;SDS011;41245;45.384;20.390;2022-08-24T00:39:27;68.53;;;31.90;;
55364;SDS011;41245;45.384;20.390;2022-08-24T00:41:53;73.68;;;32.08;;
55364;SDS011;41245;45.384;20.390;2022-08-24T00:44:19;79.05;;;34.33;;
55364;SDS011;41245;45.384;20.390;2022-08-24T00:47:06;70.55;;;32.75;;
55364;SDS011;41245;45.384;20.390;2022-08-24T00:52:31;76.35;;;34.45;;
55364;SDS011;41245;45.384;20.390;2022-08-24T00:55:09;77.55;;;32.83;;
55364;SDS011;41245;45.384;20.390;2022-08-24T01:00:09;80.50;;;33.35;;
55364;SDS011;41245;45.384;20.390;2022-08-24T01:02:40;83.03;;;35.00;;
55364;SDS011;41245;45.384;20.390;2022-08-24T01:05:09;84.82;;;34.72;;
55364;SDS011;41245;45.384;20.390;2022-08-24T01:07:36;72.75;;;32.72;;
55364;SDS011;41245;45.384;20.390;2022-08-24T01:10:07;78.53;;;33.28;;
55364;SDS011;41245;45.384;20.390;2022-08-24T01:12:36;69.80;;;30.67;;
55364;SDS011;41245;45.384;20.390;2022-08-24T01:15:05;66.15;;;30.20;;
55364;SDS011;41245;45.384;20.390;2022-08-24T01:17:33;63.72;;;31.17;;
55364;SDS011;41245;45.384;20.390;2022-08-24T01:20:19;57.55;;;28.35;;
55364;SDS011;41245;45.384;20.390;2022-08-24T01:25:58;58.80;;;27.65;;
55364;SDS011;41245;45.384;20.390;2022-08-24T01:28:24;55.00;;;28.27;;
55364;SDS011;41245;45.384;20.390;2022-08-24T01:30:51;55.33;;;27.13;;
55364;SDS011;41245;45.384;20.390;2022-08-24T01:33:24;61.97;;;28.13;;
55364;SDS011;41245;45.384;20.390;2022-08-24T01:36:00;55.65;;;27.67;;
55364;SDS011;41245;45.384;20.390;2022-08-24T01:38:49;55.10;;;26.48;;
55364;SDS011;41245;45.384;20.390;2022-08-24T01:41:15;55.75;;;27.85;;
55364;SDS011;41245;45.384;20.390;2022-08-24T01:43:41;62.00;;;28.85;;
55364;SDS011;41245;45.384;20.390;2022-08-24T01:46:07;55.30;;;27.60;;
55364;SDS011;41245;45.384;20.390;2022-08-24T01:48:33;57.08;;;29.00;;
55364;SDS011;41245;45.384;20.390;2022-08-24T01:50:59;57.90;;;27.25;;
55364;SDS011;41245;45.384;20.390;2022-08-24T01:53:25;51.33;;;26.45;;
55364;SDS011;41245;45.384;20.390;2022-08-24T01:55:50;50.10;;;26.15;;
55364;SDS011;41245;45.384;20.390;2022-08-24T01:58:16;50.17;;;25.65;;
55364;SDS011;41245;45.384;20.390;2022-08-24T02:00:42;55.05;;;28.20;;
55364;SDS011;41245;45.384;20.390;2022-08-24T02:03:08;47.28;;;26.67;;
55364;SDS011;41245;45.384;20.390;2022-08-24T02:05:34;50.60;;;26.98;;
55364;SDS011;41245;45.384;20.390;2022-08-24T02:08:01;52.40;;;27.15;;
55364;SDS011;41245;45.384;20.390;2022-08-24T02:10:27;53.15;;;28.60;;
55364;SDS011;41245;45.384;20.390;2022-08-24T02:12:54;51.95;;;26.77;;
55364;SDS011;41245;45.384;20.390;2022-08-24T02:15:28;53.70;;;28.05;;
55364;SDS011;41245;45.384;20.390;2022-08-24T02:17:56;65.38;;;30.92;;
55364;SDS011;41245;45.384;20.390;2022-08-24T02:20:23;60.67;;;30.23;;
55364;SDS011;41245;45.384;20.390;2022-08-24T02:22:49;55.53;;;28.38;;
55364;SDS011;41245;45.384;20.390;2022-08-24T02:25:16;58.95;;;28.50;;
55364;SDS011;41245;45.384;20.390;2022-08-24T02:27:42;50.92;;;28.15;;
55364;SDS011;41245;45.384;20.390;2022-08-24T02:30:08;52.53;;;27.25;;
55364;SDS011;41245;45.384;20.390;2022-08-24T02:32:34;57.90;;;29.50;;
55364;SDS011;41245;45.384;20.390;2022-08-24T02:35:00;57.05;;;27.88;;
55364;SDS011;41245;45.384;20.390;2022-08-24T02:37:26;46.33;;;26.95;;
55364;SDS011;41245;45.384;20.390;2022-08-24T02:39:51;61.15;;;29.35;;
55364;SDS011;41245;45.384;20.390;2022-08-24T02:42:17;62.67;;;29.65;;
55364;SDS011;41245;45.384;20.390;2022-08-24T02:44:43;50.47;;;27.33;;
55364;SDS011;41245;45.384;20.390;2022-08-24T02:47:09;42.90;;;26.45;;
55364;SDS011;41245;45.384;20.390;2022-08-24T02:49:35;48.70;;;27.17;;
55364;SDS011;41245;45.384;20.390;2022-08-24T02:52:01;47.80;;;27.48;;
55364;SDS011;41245;45.384;20.390;2022-08-24T02:54:28;48.90;;;26.67;;
55364;SDS011;41245;45.384;20.390;2022-08-24T02:56:54;54.17;;;29.23;;
55364;SDS011;41245;45.384;20.390;2022-08-24T02:59:20;52.90;;;28.67;;
55364;SDS011;41245;45.384;20.390;2022-08-24T03:01:46;54.38;;;29.08;;
55364;SDS011;41245;45.384;20.390;2022-08-24T03:04:12;46.35;;;28.17;;
55364;SDS011;41245;45.384;20.390;2022-08-24T03:06:38;48.90;;;27.52;;
55364;SDS011;41245;45.384;20.390;2022-08-24T03:09:05;47.72;;;26.77;;
55364;SDS011;41245;45.384;20.390;2022-08-24T03:11:31;45.33;;;26.42;;
55364;SDS011;41245;45.384;20.390;2022-08-24T03:13:57;49.42;;;26.15;;
55364;SDS011;41245;45.384;20.390;2022-08-24T03:16:23;50.53;;;27.38;;
55364;SDS011;41245;45.384;20.390;2022-08-24T03:21:18;50.20;;;27.98;;
55364;SDS011;41245;45.384;20.390;2022-08-24T03:23:44;52.60;;;28.38;;
55364;SDS011;41245;45.384;20.390;2022-08-24T03:26:10;51.05;;;28.05;;
55364;SDS011;41245;45.384;20.390;2022-08-24T03:28:36;51.90;;;27.00;;
55364;SDS011;41245;45.384;20.390;2022-08-24T03:31:02;48.90;;;28.17;;
55364;SDS011;41245;45.384;20.390;2022-08-24T03:33:28;51.53;;;27.60;;
55364;SDS011;41245;45.384;20.390;2022-08-24T03:35:54;49.45;;;27.95;;
55364;SDS011;41245;45.384;20.390;2022-08-24T03:38:20;50.28;;;27.92;;
55364;SDS011;41245;45.384;20.390;2022-08-24T03:40:46;45.92;;;26.65;;
55364;SDS011;41245;45.384;20.390;2022-08-24T03:43:13;48.63;;;27.40;;
55364;SDS011;41245;45.384;20.390;2022-08-24T03:45:59;47.88;;;27.35;;
55364;SDS011;41245;45.384;20.390;2022-08-24T03:48:27;45.58;;;26.48;;
55364;SDS011;41245;45.384;20.390;2022-08-24T03:50:54;40.60;;;26.88;;
55364;SDS011;41245;45.384;20.390;2022-08-24T03:53:20;46.20;;;25.65;;
55364;SDS011;41245;45.384;20.390;2022-08-24T03:55:46;48.50;;;27.17;;
55364;SDS011;41245;45.384;20.390;2022-08-24T03:58:11;44.30;;;26.58;;
55364;SDS011;41245;45.384;20.390;2022-08-24T04:00:37;52.00;;;27.33;;
55364;SDS011;41245;45.384;20.390;2022-08-24T04:03:07;43.95;;;27.63;;
55364;SDS011;41245;45.384;20.390;2022-08-24T04:05:34;50.45;;;27.73;;
55364;SDS011;41245;45.384;20.390;2022-08-24T04:08:00;46.00;;;26.38;;
55364;SDS011;41245;45.384;20.390;2022-08-24T04:10:26;49.70;;;26.05;;
55364;SDS011;41245;45.384;20.390;2022-08-24T04:12:52;46.38;;;25.88;;
55364;SDS011;41245;45.384;20.390;2022-08-24T04:15:18;59.80;;;29.17;;
55364;SDS011;41245;45.384;20.390;2022-08-24T04:17:44;50.55;;;27.60;;
55364;SDS011;41245;45.384;20.390;2022-08-24T04:20:10;49.95;;;27.75;;
55364;SDS011;41245;45.384;20.390;2022-08-24T04:22:36;43.03;;;26.27;;
55364;SDS011;41245;45.384;20.390;2022-08-24T04:25:02;50.42;;;27.80;;
55364;SDS011;41245;45.384;20.390;2022-08-24T04:27:29;51.35;;;29.33;;
55364;SDS011;41245;45.384;20.390;2022-08-24T04:29:54;51.97;;;28.13;;
55364;SDS011;41245;45.384;20.390;2022-08-24T04:32:20;46.13;;;27.58;;
55364;SDS011;41245;45.384;20.390;2022-08-24T04:34:46;54.60;;;30.20;;
55364;SDS011;41245;45.384;20.390;2022-08-24T04:37:12;49.45;;;27.88;;
55364;SDS011;41245;45.384;20.390;2022-08-24T04:39:38;43.95;;;27.20;;
55364;SDS011;41245;45.384;20.390;2022-08-24T04:42:04;47.20;;;27.85;;
55364;SDS011;41245;45.384;20.390;2022-08-24T04:44:30;47.67;;;27.40;;
55364;SDS011;41245;45.384;20.390;2022-08-24T04:46:56;48.80;;;25.75;;
55364;SDS011;41245;45.384;20.390;2022-08-24T04:49:22;54.15;;;29.67;;
55364;SDS011;41245;45.384;20.390;2022-08-24T04:51:48;49.53;;;27.75;;
55364;SDS011;41245;45.384;20.390;2022-08-24T04:54:14;46.20;;;28.98;;
55364;SDS011;41245;45.384;20.390;2022-08-24T04:56:40;49.80;;;29.20;;
55364;SDS011;41245;45.384;20.390;2022-08-24T04:59:05;50.03;;;29.05;;
55364;SDS011;41245;45.384;20.390;2022-08-24T05:01:31;48.38;;;28.38;;
55364;SDS011;41245;45.384;20.390;2022-08-24T05:03:57;46.65;;;27.70;;
55364;SDS011;41245;45.384;20.390;2022-08-24T05:06:24;49.40;;;27.35;;
55364;SDS011;41245;45.384;20.390;2022-08-24T05:08:52;51.38;;;28.88;;
55364;SDS011;41245;45.384;20.390;2022-08-24T05:11:19;41.42;;;25.88;;
55364;SDS011;41245;45.384;20.390;2022-08-24T05:13:46;46.05;;;27.92;;
55364;SDS011;41245;45.384;20.390;2022-08-24T05:16:13;52.78;;;30.67;;
55364;SDS011;41245;45.384;20.390;2022-08-24T05:18:41;47.85;;;29.60;;
55364;SDS011;41245;45.384;20.390;2022-08-24T05:21:11;54.63;;;28.90;;
55364;SDS011;41245;45.384;20.390;2022-08-24T05:23:39;52.90;;;30.52;;
55364;SDS011;41245;45.384;20.390;2022-08-24T05:26:06;56.47;;;29.17;;
55364;SDS011;41245;45.384;20.390;2022-08-24T05:28:34;55.38;;;30.58;;
55364;SDS011;41245;45.384;20.390;2022-08-24T05:31:20;49.38;;;29.65;;
55364;SDS011;41245;45.384;20.390;2022-08-24T05:33:47;49.33;;;28.95;;
55364;SDS011;41245;45.384;20.390;2022-08-24T05:36:19;48.25;;;29.90;;
55364;SDS011;41245;45.384;20.390;2022-08-24T05:38:53;49.72;;;30.58;;
55364;SDS011;41245;45.384;20.390;2022-08-24T05:41:21;52.30;;;32.40;;
55364;SDS011;41245;45.384;20.390;2022-08-24T05:43:47;47.45;;;29.67;;
55364;SDS011;41245;45.384;20.390;2022-08-24T05:46:13;51.17;;;31.55;;
55364;SDS011;41245;45.384;20.390;2022-08-24T05:48:40;58.03;;;30.83;;
55364;SDS011;41245;45.384;20.390;2022-08-24T05:51:06;44.20;;;28.63;;
55364;SDS011;41245;45.384;20.390;2022-08-24T05:53:32;54.28;;;32.58;;
55364;SDS011;41245;45.384;20.390;2022-08-24T05:56:06;50.83;;;31.00;;
55364;SDS011;41245;45.384;20.390;2022-08-24T05:58:36;55.28;;;30.98;;
55364;SDS011;41245;45.384;20.390;2022-08-24T06:01:11;53.85;;;30.80;;
55364;SDS011;41245;45.384;20.390;2022-08-24T06:03:42;51.92;;;32.78;;
55364;SDS011;41245;45.384;20.390;2022-08-24T06:06:09;49.40;;;28.65;;
55364;SDS011;41245;45.384;20.390;2022-08-24T06:08:36;50.03;;;30.35;;
55364;SDS011;41245;45.384;20.390;2022-08-24T06:11:04;56.47;;;32.00;;
55364;SDS011;41245;45.384;20.390;2022-08-24T06:13:31;55.75;;;32.97;;
55364;SDS011;41245;45.384;20.390;2022-08-24T06:16:07;46.65;;;30.05;;
55364;SDS011;41245;45.384;20.390;2022-08-24T06:18:35;44.80;;;29.80;;
55364;SDS011;41245;45.384;20.390;2022-08-24T06:21:06;54.13;;;30.10;;
55364;SDS011;41245;45.384;20.390;2022-08-24T06:23:33;51.25;;;31.48;;
55364;SDS011;41245;45.384;20.390;2022-08-24T06:26:00;55.47;;;32.75;;
55364;SDS011;41245;45.384;20.390;2022-08-24T06:28:49;53.67;;;31.73;;
55364;SDS011;41245;45.384;20.390;2022-08-24T06:31:16;59.17;;;31.63;;
55364;SDS011;41245;45.384;20.390;2022-08-24T06:33:42;58.08;;;33.47;;
55364;SDS011;41245;45.384;20.390;2022-08-24T06:36:08;47.60;;;30.30;;
55364;SDS011;41245;45.384;20.390;2022-08-24T06:38:34;45.75;;;29.80;;
55364;SDS011;41245;45.384;20.390;2022-08-24T06:41:00;54.83;;;31.02;;
55364;SDS011;41245;45.384;20.390;2022-08-24T06:43:26;46.35;;;27.98;;
55364;SDS011;41245;45.384;20.390;2022-08-24T06:45:53;51.85;;;29.77;;
55364;SDS011;41245;45.384;20.390;2022-08-24T06:48:19;49.35;;;30.95;;
55364;SDS011;41245;45.384;20.390;2022-08-24T06:50:46;46.65;;;29.08;;
55364;SDS011;41245;45.384;20.390;2022-08-24T06:53:12;40.08;;;28.25;;
55364;SDS011;41245;45.384;20.390;2022-08-24T06:55:49;39.47;;;27.17;;
55364;SDS011;41245;45.384;20.390;2022-08-24T06:58:19;38.65;;;25.95;;
55364;SDS011;41245;45.384;20.390;2022-08-24T07:00:46;40.88;;;25.45;;
55364;SDS011;41245;45.384;20.390;2022-08-24T07:03:13;36.58;;;23.88;;
55364;SDS011;41245;45.384;20.390;2022-08-24T07:05:39;37.45;;;24.55;;
55364;SDS011;41245;45.384;20.390;2022-08-24T07:08:05;38.50;;;25.98;;
55364;SDS011;41245;45.384;20.390;2022-08-24T07:10:32;34.60;;;25.30;;
55364;SDS011;41245;45.384;20.390;2022-08-24T07:12:59;35.78;;;24.92;;
55364;SDS011;41245;45.384;20.390;2022-08-24T07:15:25;33.17;;;25.10;;
55364;SDS011;41245;45.384;20.390;2022-08-24T07:17:51;34.65;;;24.95;;
55364;SDS011;41245;45.384;20.390;2022-08-24T07:20:17;38.75;;;25.42;;
55364;SDS011;41245;45.384;20.390;2022-08-24T07:22:44;37.03;;;24.52;;
55364;SDS011;41245;45.384;20.390;2022-08-24T07:25:10;32.28;;;23.42;;
55364;SDS011;41245;45.384;20.390;2022-08-24T07:27:37;35.92;;;23.83;;
55364;SDS011;41245;45.384;20.390;2022-08-24T07:30:04;31.90;;;25.10;;
55364;SDS011;41245;45.384;20.390;2022-08-24T07:32:31;37.83;;;23.88;;
55364;SDS011;41245;45.384;20.390;2022-08-24T07:34:58;37.75;;;23.17;;
55364;SDS011;41245;45.384;20.390;2022-08-24T07:37:24;35.63;;;24.20;;
55364;SDS011;41245;45.384;20.390;2022-08-24T07:39:50;34.78;;;23.85;;
55364;SDS011;41245;45.384;20.390;2022-08-24T07:42:15;34.50;;;25.58;;
55364;SDS011;41245;45.384;20.390;2022-08-24T07:44:41;48.83;;;27.05;;
55364;SDS011;41245;45.384;20.390;2022-08-24T07:47:07;45.47;;;27.00;;
55364;SDS011;41245;45.384;20.390;2022-08-24T07:49:33;43.15;;;25.90;;
55364;SDS011;41245;45.384;20.390;2022-08-24T07:51:59;37.45;;;25.13;;
55364;SDS011;41245;45.384;20.390;2022-08-24T07:54:25;33.88;;;25.00;;
55364;SDS011;41245;45.384;20.390;2022-08-24T07:56:53;36.38;;;26.05;;
55364;SDS011;41245;45.384;20.390;2022-08-24T07:59:19;38.83;;;25.67;;
55364;SDS011;41245;45.384;20.390;2022-08-24T08:01:45;44.92;;;28.00;;
55364;SDS011;41245;45.384;20.390;2022-08-24T08:04:11;38.22;;;26.05;;
55364;SDS011;41245;45.384;20.390;2022-08-24T08:06:39;36.67;;;26.30;;
55364;SDS011;41245;45.384;20.390;2022-08-24T08:09:05;40.28;;;26.42;;
55364;SDS011;41245;45.384;20.390;2022-08-24T08:11:31;35.33;;;25.08;;
55364;SDS011;41245;45.384;20.390;2022-08-24T08:13:57;36.63;;;23.45;;
55364;SDS011;41245;45.384;20.390;2022-08-24T08:16:23;36.25;;;25.58;;
55364;SDS011;41245;45.384;20.390;2022-08-24T08:18:50;34.97;;;24.83;;
55364;SDS011;41245;45.384;20.390;2022-08-24T08:21:16;38.30;;;25.13;;
55364;SDS011;41245;45.384;20.390;2022-08-24T08:24:00;29.00;;;20.30;;
55364;SDS011;41245;45.384;20.390;2022-08-24T08:26:42;31.58;;;20.80;;
55364;SDS011;41245;45.384;20.390;2022-08-24T08:29:11;33.30;;;19.95;;
55364;SDS011;41245;45.384;20.390;2022-08-24T08:31:38;28.38;;;21.33;;
55364;SDS011;41245;45.384;20.390;2022-08-24T08:34:04;28.15;;;20.30;;
55364;SDS011;41245;45.384;20.390;2022-08-24T08:36:31;24.40;;;20.35;;
55364;SDS011;41245;45.384;20.390;2022-08-24T08:38:57;26.38;;;20.52;;
55364;SDS011;41245;45.384;20.390;2022-08-24T08:42:02;28.83;;;20.88;;
55364;SDS011;41245;45.384;20.390;2022-08-24T08:44:42;27.33;;;20.63;;
55364;SDS011;41245;45.384;20.390;2022-08-24T09:14:46;37.10;;;19.55;;
55364;SDS011;41245;45.384;20.390;2022-08-24T09:25:49;31.27;;;20.65;;
55364;SDS011;41245;45.384;20.390;2022-08-24T09:28:43;25.83;;;20.23;;
55364;SDS011;41245;45.384;20.390;2022-08-24T09:36:39;33.90;;;23.92;;
55364;SDS011;41245;45.384;20.390;2022-08-24T10:03:54;35.75;;;24.80;;
55364;SDS011;41245;45.384;20.390;2022-08-24T10:06:40;33.47;;;24.60;;
55364;SDS011;41245;45.384;20.390;2022-08-24T10:21:43;30.20;;;23.13;;
55364;SDS011;41245;45.384;20.390;2022-08-24T10:42:42;26.05;;;21.05;;
55364;SDS011;41245;45.384;20.390;2022-08-24T10:50:55;25.27;;;19.63;;
55364;SDS011;41245;45.384;20.390;2022-08-24T10:53:32;56.65;;;21.48;;
55364;SDS011;41245;45.384;20.390;2022-08-24T10:56:03;35.90;;;19.60;;
55364;SDS011;41245;45.384;20.390;2022-08-24T11:06:17;21.42;;;17.95;;
55364;SDS011;41245;45.384;20.390;2022-08-24T11:08:55;23.23;;;17.77;;
55364;SDS011;41245;45.384;20.390;2022-08-24T11:11:24;25.42;;;17.85;;
55364;SDS011;41245;45.384;20.390;2022-08-24T11:13:54;25.00;;;17.27;;
55364;SDS011;41245;45.384;20.390;2022-08-24T11:16:28;22.23;;;15.77;;
55364;SDS011;41245;45.384;20.390;2022-08-24T11:18:59;20.67;;;16.88;;
55364;SDS011;41245;45.384;20.390;2022-08-24T11:24:26;20.00;;;15.63;;
55364;SDS011;41245;45.384;20.390;2022-08-24T11:32:37;23.92;;;14.32;;
55364;SDS011;41245;45.384;20.390;2022-08-24T11:35:19;25.40;;;13.88;;
55364;SDS011;41245;45.384;20.390;2022-08-24T11:38:16;26.15;;;13.23;;
55364;SDS011;41245;45.384;20.390;2022-08-24T11:44:58;28.98;;;12.55;;
55364;SDS011;41245;45.384;20.390;2022-08-24T11:47:43;16.45;;;10.65;;
55364;SDS011;41245;45.384;20.390;2022-08-24T11:49:46;27.65;;;11.35;;
55364;SDS011;41245;45.384;20.390;2022-08-24T11:58:01;17.15;;;12.20;;
55364;SDS011;41245;45.384;20.390;2022-08-24T12:00:47;24.70;;;11.35;;
55364;SDS011;41245;45.384;20.390;2022-08-24T12:12:53;11.35;;;9.55;;
55364;SDS011;41245;45.384;20.390;2022-08-24T12:21:24;15.63;;;9.88;;
55364;SDS011;41245;45.384;20.390;2022-08-24T12:23:59;15.30;;;11.20;;
55364;SDS011;41245;45.384;20.390;2022-08-24T12:26:36;13.02;;;10.35;;
55364;SDS011;41245;45.384;20.390;2022-08-24T12:29:17;15.93;;;11.10;;
55364;SDS011;41245;45.384;20.390;2022-08-24T12:31:48;14.98;;;11.73;;
55364;SDS011;41245;45.384;20.390;2022-08-24T12:34:21;15.27;;;11.63;;
55364;SDS011;41245;45.384;20.390;2022-08-24T12:36:55;15.37;;;11.53;;
55364;SDS011;41245;45.384;20.390;2022-08-24T12:39:39;16.27;;;10.65;;
55364;SDS011;41245;45.384;20.390;2022-08-24T12:45:10;15.93;;;10.82;;
55364;SDS011;41245;45.384;20.390;2022-08-24T12:48:01;12.82;;;10.52;;
55364;SDS011;41245;45.384;20.390;2022-08-24T12:50:45;14.55;;;10.82;;
55364;SDS011;41245;45.384;20.390;2022-08-24T12:59:24;12.15;;;10.88;;
55364;SDS011;41245;45.384;20.390;2022-08-24T13:01:59;15.75;;;9.95;;
55364;SDS011;41245;45.384;20.390;2022-08-24T13:15:20;10.95;;;9.75;;
55364;SDS011;41245;45.384;20.390;2022-08-24T13:18:00;13.15;;;9.50;;
55364;SDS011;41245;45.384;20.390;2022-08-24T13:44:14;20.45;;;8.65;;
55364;SDS011;41245;45.384;20.390;2022-08-24T13:47:10;13.23;;;8.70;;
55364;SDS011;41245;45.384;20.390;2022-08-24T13:49:55;10.18;;;8.68;;
55364;SDS011;41245;45.384;20.390;2022-08-24T14:00:50;11.43;;;7.43;;
55364;SDS011;41245;45.384;20.390;2022-08-24T14:20:08;10.85;;;8.00;;
55364;SDS011;41245;45.384;20.390;2022-08-24T14:25:15;17.80;;;9.70;;
55364;SDS011;41245;45.384;20.390;2022-08-24T14:35:30;17.85;;;10.88;;
55364;SDS011;41245;45.384;20.390;2022-08-24T14:38:03;13.13;;;9.07;;
55364;SDS011;41245;45.384;20.390;2022-08-24T14:52:03;11.07;;;8.98;;
55364;SDS011;41245;45.384;20.390;2022-08-24T15:04:04;11.43;;;8.85;;
55364;SDS011;41245;45.384;20.390;2022-08-24T15:11:58;11.30;;;9.13;;
55364;SDS011;41245;45.384;20.390;2022-08-24T15:14:50;12.00;;;7.45;;
55364;SDS011;41245;45.384;20.390;2022-08-24T15:17:25;14.15;;;7.30;;
55364;SDS011;41245;45.384;20.390;2022-08-24T15:23:03;11.10;;;7.22;;
55364;SDS011;41245;45.384;20.390;2022-08-24T15:25:34;12.13;;;8.70;;
55364;SDS011;41245;45.384;20.390;2022-08-24T15:28:10;9.63;;;6.95;;
55364;SDS011;41245;45.384;20.390;2022-08-24T15:30:38;11.20;;;8.00;;
55364;SDS011;41245;45.384;20.390;2022-08-24T15:33:17;10.73;;;7.67;;
55364;SDS011;41245;45.384;20.390;2022-08-24T15:35:49;10.68;;;7.65;;
55364;SDS011;41245;45.384;20.390;2022-08-24T15:38:37;8.48;;;7.03;;
55364;SDS011;41245;45.384;20.390;2022-08-24T15:41:13;9.95;;;7.50;;
55364;SDS011;41245;45.384;20.390;2022-08-24T15:46:22;10.05;;;8.00;;
55364;SDS011;41245;45.384;20.390;2022-08-24T15:48:57;8.90;;;7.95;;
55364;SDS011;41245;45.384;20.390;2022-08-24T15:51:53;10.30;;;6.75;;
55364;SDS011;41245;45.384;20.390;2022-08-24T15:57:47;9.23;;;8.20;;
55364;SDS011;41245;45.384;20.390;2022-08-24T16:10:39;10.55;;;7.47;;
55364;SDS011;41245;45.384;20.390;2022-08-24T16:18:22;11.40;;;8.27;;
55364;SDS011;41245;45.384;20.390;2022-08-24T16:20:51;10.73;;;8.18;;
55364;SDS011;41245;45.384;20.390;2022-08-24T16:23:25;11.50;;;8.43;;
55364;SDS011;41245;45.384;20.390;2022-08-24T16:28:45;10.85;;;8.73;;
55364;SDS011;41245;45.384;20.390;2022-08-24T16:31:11;13.55;;;8.52;;
55364;SDS011;41245;45.384;20.390;2022-08-24T16:34:11;9.90;;;7.57;;
55364;SDS011;41245;45.384;20.390;2022-08-24T16:36:40;9.30;;;8.25;;
55364;SDS011;41245;45.384;20.390;2022-08-24T16:39:06;13.98;;;9.35;;
55364;SDS011;41245;45.384;20.390;2022-08-24T16:41:34;12.10;;;8.32;;
55364;SDS011;41245;45.384;20.390;2022-08-24T16:44:02;10.07;;;9.00;;
55364;SDS011;41245;45.384;20.390;2022-08-24T16:46:28;10.50;;;8.25;;
55364;SDS011;41245;45.384;20.390;2022-08-24T16:48:54;12.00;;;8.07;;
55364;SDS011;41245;45.384;20.390;2022-08-24T16:51:20;14.80;;;10.13;;
55364;SDS011;41245;45.384;20.390;2022-08-24T16:53:48;13.70;;;8.93;;
55364;SDS011;41245;45.384;20.390;2022-08-24T16:56:14;12.00;;;8.45;;
55364;SDS011;41245;45.384;20.390;2022-08-24T16:58:40;12.15;;;8.20;;
55364;SDS011;41245;45.384;20.390;2022-08-24T17:01:06;10.30;;;8.15;;
55364;SDS011;41245;45.384;20.390;2022-08-24T17:03:31;11.07;;;9.07;;
55364;SDS011;41245;45.384;20.390;2022-08-24T17:05:58;16.98;;;8.10;;
55364;SDS011;41245;45.384;20.390;2022-08-24T17:08:24;14.02;;;8.60;;
55364;SDS011;41245;45.384;20.390;2022-08-24T17:10:51;12.93;;;8.70;;
55364;SDS011;41245;45.384;20.390;2022-08-24T17:13:17;12.68;;;9.32;;
55364;SDS011;41245;45.384;20.390;2022-08-24T17:15:44;15.02;;;9.93;;
55364;SDS011;41245;45.384;20.390;2022-08-24T17:18:10;11.60;;;9.02;;
55364;SDS011;41245;45.384;20.390;2022-08-24T17:20:38;11.23;;;9.85;;
55364;SDS011;41245;45.384;20.390;2022-08-24T17:23:04;15.75;;;10.30;;
55364;SDS011;41245;45.384;20.390;2022-08-24T17:25:32;16.13;;;9.70;;
55364;SDS011;41245;45.384;20.390;2022-08-24T17:27:59;15.93;;;10.30;;
55364;SDS011;41245;45.384;20.390;2022-08-24T17:30:25;14.27;;;10.80;;
55364;SDS011;41245;45.384;20.390;2022-08-24T17:32:51;13.38;;;10.60;;
55364;SDS011;41245;45.384;20.390;2022-08-24T17:35:18;12.18;;;10.40;;
55364;SDS011;41245;45.384;20.390;2022-08-24T17:37:45;19.98;;;11.90;;
55364;SDS011;41245;45.384;20.390;2022-08-24T17:40:13;14.85;;;10.40;;
55364;SDS011;41245;45.384;20.390;2022-08-24T17:42:41;19.13;;;12.35;;
55364;SDS011;41245;45.384;20.390;2022-08-24T17:45:06;20.60;;;12.13;;
55364;SDS011;41245;45.384;20.390;2022-08-24T17:47:32;15.80;;;10.65;;
55364;SDS011;41245;45.384;20.390;2022-08-24T17:50:02;16.17;;;12.30;;
55364;SDS011;41245;45.384;20.390;2022-08-24T17:52:29;13.00;;;10.77;;
55364;SDS011;41245;45.384;20.390;2022-08-24T17:54:54;14.23;;;11.65;;
55364;SDS011;41245;45.384;20.390;2022-08-24T17:57:21;18.08;;;11.75;;
55364;SDS011;41245;45.384;20.390;2022-08-24T17:59:50;18.98;;;11.75;;
55364;SDS011;41245;45.384;20.390;2022-08-24T18:02:17;19.70;;;11.75;;
55364;SDS011;41245;45.384;20.390;2022-08-24T18:04:44;15.35;;;12.15;;
55364;SDS011;41245;45.384;20.390;2022-08-24T18:07:12;19.75;;;12.25;;
55364;SDS011;41245;45.384;20.390;2022-08-24T18:12:12;19.15;;;12.27;;
55364;SDS011;41245;45.384;20.390;2022-08-24T18:14:39;17.50;;;12.88;;
55364;SDS011;41245;45.384;20.390;2022-08-24T18:17:05;19.92;;;14.75;;
55364;SDS011;41245;45.384;20.390;2022-08-24T18:19:34;21.52;;;12.60;;
55364;SDS011;41245;45.384;20.390;2022-08-24T18:22:00;17.58;;;12.50;;
55364;SDS011;41245;45.384;20.390;2022-08-24T18:24:28;22.08;;;13.48;;
55364;SDS011;41245;45.384;20.390;2022-08-24T18:27:00;18.70;;;13.13;;
55364;SDS011;41245;45.384;20.390;2022-08-24T18:29:29;20.00;;;13.00;;
55364;SDS011;41245;45.384;20.390;2022-08-24T18:31:56;17.63;;;12.68;;
55364;SDS011;41245;45.384;20.390;2022-08-24T18:34:23;18.85;;;13.57;;
55364;SDS011;41245;45.384;20.390;2022-08-24T18:36:49;20.00;;;12.27;;
55364;SDS011;41245;45.384;20.390;2022-08-24T18:39:15;16.17;;;12.38;;
55364;SDS011;41245;45.384;20.390;2022-08-24T18:41:42;15.32;;;12.63;;
55364;SDS011;41245;45.384;20.390;2022-08-24T18:44:10;17.05;;;12.73;;
55364;SDS011;41245;45.384;20.390;2022-08-24T18:46:37;20.77;;;14.18;;
55364;SDS011;41245;45.384;20.390;2022-08-24T18:49:04;17.30;;;13.52;;
55364;SDS011;41245;45.384;20.390;2022-08-24T18:51:31;19.58;;;13.55;;
55364;SDS011;41245;45.384;20.390;2022-08-24T18:54:06;17.83;;;14.10;;
55364;SDS011;41245;45.384;20.390;2022-08-24T18:56:34;23.80;;;15.40;;
55364;SDS011;41245;45.384;20.390;2022-08-24T18:59:01;23.65;;;17.05;;
55364;SDS011;41245;45.384;20.390;2022-08-24T19:01:28;25.83;;;16.05;;
55364;SDS011;41245;45.384;20.390;2022-08-24T19:03:54;23.98;;;17.52;;
55364;SDS011;41245;45.384;20.390;2022-08-24T19:06:24;26.33;;;17.15;;
55364;SDS011;41245;45.384;20.390;2022-08-24T19:08:50;27.23;;;15.25;;
55364;SDS011;41245;45.384;20.390;2022-08-24T19:11:16;28.58;;;16.52;;
55364;SDS011;41245;45.384;20.390;2022-08-24T19:13:47;23.85;;;15.85;;